sensor_id;sensor_type;location;lat;lon;timestamp;temperature;humidity
27647;DHT22;42229;51.230;6.240;2023-05-09T00:00:54;18.20;99.90
27647;DHT22;42229;51.230;6.240;2023-05-09T00:03:21;18.10;99.90
27647;DHT22;42229;51.230;6.240;2023-05-09T00:05:47;18.00;99.90
27647;DHT22;42229;51.230;6.240;2023-05-09T00:08:13;17.90;99.90
27647;DHT22;42229;51.230;6.240;2023-05-09T00:10:40;17.80;99.90
27647;DHT22;42229;51.230;6.240;2023-05-09T00:13:06;17.70;99.90
27647;DHT22;42229;51.230;6.240;2023-05-09T00:15:32;17.70;99.90
27647;DHT22;42229;51.230;6.240;2023-05-09T00:17:59;17.60;99.90
27647;DHT22;42229;51.230;6.240;2023-05-09T00:20:25;17.60;99.90
27647;DHT22;42229;51.230;6.240;2023-05-09T00:22:51;17.50;99.90
27647;DHT22;42229;51.230;6.240;2023-05-09T00:25:17;17.50;99.90
27647;DHT22;42229;51.230;6.240;2023-05-09T00:27:43;17.50;99.90
27647;DHT22;42229;51.230;6.240;2023-05-09T00:30:10;17.40;99.90
27647;DHT22;42229;51.230;6.240;2023-05-09T00:32:36;17.40;99.90
27647;DHT22;42229;51.230;6.240;2023-05-09T00:35:02;17.40;99.90
27647;DHT22;42229;51.230;6.240;2023-05-09T00:37:29;17.40;99.90
27647;DHT22;42229;51.230;6.240;2023-05-09T00:39:56;17.40;99.90
27647;DHT22;42229;51.230;6.240;2023-05-09T00:42:22;17.30;99.90
27647;DHT22;42229;51.230;6.240;2023-05-09T00:44:48;17.30;99.90
27647;DHT22;42229;51.230;6.240;2023-05-09T00:47:14;17.30;99.90
27647;DHT22;42229;51.230;6.240;2023-05-09T00:49:41;17.30;99.90
27647;DHT22;42229;51.230;6.240;2023-05-09T00:52:07;17.30;99.90
27647;DHT22;42229;51.230;6.240;2023-05-09T00:54:34;17.30;99.90
27647;DHT22;42229;51.230;6.240;2023-05-09T00:57:00;17.20;99.90
27647;DHT22;42229;51.230;6.240;2023-05-09T00:59:27;17.30;99.90
27647;DHT22;42229;51.230;6.240;2023-05-09T01:01:53;17.20;99.90
27647;DHT22;42229;51.230;6.240;2023-05-09T01:04:19;17.30;99.90
27647;DHT22;42229;51.230;6.240;2023-05-09T01:07:33;17.20;99.90
27647;DHT22;42229;51.230;6.240;2023-05-09T01:09:42;17.20;99.90
27647;DHT22;42229;51.230;6.240;2023-05-09T01:14:58;17.30;99.90
27647;DHT22;42229;51.230;6.240;2023-05-09T01:17:33;17.30;99.90
27647;DHT22;42229;51.230;6.240;2023-05-09T01:20:24;17.30;99.90
27647;DHT22;42229;51.230;6.240;2023-05-09T01:23:16;17.30;99.90
27647;DHT22;42229;51.230;6.240;2023-05-09T01:26:09;17.30;99.90
27647;DHT22;42229;51.230;6.240;2023-05-09T01:31:33;17.30;99.90
27647;DHT22;42229;51.230;6.240;2023-05-09T01:34:03;17.30;99.90
27647;DHT22;42229;51.230;6.240;2023-05-09T01:36:31;17.30;99.90
27647;DHT22;42229;51.230;6.240;2023-05-09T01:39:00;17.30;99.90
27647;DHT22;42229;51.230;6.240;2023-05-09T01:41:27;17.30;99.90
27647;DHT22;42229;51.230;6.240;2023-05-09T01:43:55;17.30;99.90
27647;DHT22;42229;51.230;6.240;2023-05-09T01:46:24;17.40;99.90
27647;DHT22;42229;51.230;6.240;2023-05-09T01:48:50;17.30;99.90
27647;DHT22;42229;51.230;6.240;2023-05-09T01:51:17;17.30;99.90
27647;DHT22;42229;51.230;6.240;2023-05-09T01:53:44;17.40;99.90
27647;DHT22;42229;51.230;6.240;2023-05-09T01:56:13;17.30;99.90
27647;DHT22;42229;51.230;6.240;2023-05-09T01:58:40;17.30;99.90
27647;DHT22;42229;51.230;6.240;2023-05-09T02:01:07;17.30;99.90
27647;DHT22;42229;51.230;6.240;2023-05-09T02:03:35;17.30;99.90
27647;DHT22;42229;51.230;6.240;2023-05-09T02:06:02;17.40;99.90
27647;DHT22;42229;51.230;6.240;2023-05-09T02:08:30;17.30;99.90
27647;DHT22;42229;51.230;6.240;2023-05-09T02:10:56;17.30;99.90
27647;DHT22;42229;51.230;6.240;2023-05-09T02:13:23;17.30;99.90
27647;DHT22;42229;51.230;6.240;2023-05-09T02:15:49;17.30;99.90
27647;DHT22;42229;51.230;6.240;2023-05-09T02:18:16;17.30;99.90
27647;DHT22;42229;51.230;6.240;2023-05-09T02:20:42;17.30;99.90
27647;DHT22;42229;51.230;6.240;2023-05-09T02:23:08;17.20;99.90
27647;DHT22;42229;51.230;6.240;2023-05-09T02:25:34;17.20;99.90
27647;DHT22;42229;51.230;6.240;2023-05-09T02:28:01;17.20;99.90
27647;DHT22;42229;51.230;6.240;2023-05-09T02:30:29;17.20;99.90
27647;DHT22;42229;51.230;6.240;2023-05-09T02:33:00;17.20;99.90
27647;DHT22;42229;51.230;6.240;2023-05-09T02:35:28;17.20;99.90
27647;DHT22;42229;51.230;6.240;2023-05-09T02:37:55;17.10;99.90
27647;DHT22;42229;51.230;6.240;2023-05-09T02:40:22;17.10;99.90
27647;DHT22;42229;51.230;6.240;2023-05-09T02:42:49;17.10;99.90
27647;DHT22;42229;51.230;6.240;2023-05-09T02:45:16;17.20;99.90
27647;DHT22;42229;51.230;6.240;2023-05-09T02:47:42;17.20;99.90
27647;DHT22;42229;51.230;6.240;2023-05-09T02:50:08;17.20;99.90
27647;DHT22;42229;51.230;6.240;2023-05-09T02:52:37;17.20;99.90
27647;DHT22;42229;51.230;6.240;2023-05-09T02:55:03;17.20;99.90
27647;DHT22;42229;51.230;6.240;2023-05-09T02:57:32;17.20;99.90
27647;DHT22;42229;51.230;6.240;2023-05-09T02:59:58;17.20;99.90
27647;DHT22;42229;51.230;6.240;2023-05-09T03:02:25;17.20;99.90
27647;DHT22;42229;51.230;6.240;2023-05-09T03:04:51;17.20;99.90
27647;DHT22;42229;51.230;6.240;2023-05-09T03:07:18;17.20;99.90
27647;DHT22;42229;51.230;6.240;2023-05-09T03:09:44;17.20;99.90
27647;DHT22;42229;51.230;6.240;2023-05-09T03:12:10;17.10;99.90
27647;DHT22;42229;51.230;6.240;2023-05-09T03:14:36;17.10;99.90
27647;DHT22;42229;51.230;6.240;2023-05-09T03:17:03;17.20;99.90
27647;DHT22;42229;51.230;6.240;2023-05-09T03:19:33;17.20;99.90
27647;DHT22;42229;51.230;6.240;2023-05-09T03:22:00;17.20;99.90
27647;DHT22;42229;51.230;6.240;2023-05-09T03:24:28;17.10;99.90
27647;DHT22;42229;51.230;6.240;2023-05-09T03:26:55;17.20;99.90
27647;DHT22;42229;51.230;6.240;2023-05-09T03:29:21;17.20;99.90
27647;DHT22;42229;51.230;6.240;2023-05-09T03:31:47;17.20;99.90
27647;DHT22;42229;51.230;6.240;2023-05-09T03:34:13;17.10;99.90
27647;DHT22;42229;51.230;6.240;2023-05-09T03:36:42;17.10;99.90
27647;DHT22;42229;51.230;6.240;2023-05-09T03:39:11;17.20;99.90
27647;DHT22;42229;51.230;6.240;2023-05-09T03:41:40;17.20;99.90
27647;DHT22;42229;51.230;6.240;2023-05-09T03:44:08;17.20;99.90
27647;DHT22;42229;51.230;6.240;2023-05-09T03:46:34;17.20;99.90
27647;DHT22;42229;51.230;6.240;2023-05-09T03:49:02;17.20;99.90
27647;DHT22;42229;51.230;6.240;2023-05-09T03:51:30;17.20;99.90
27647;DHT22;42229;51.230;6.240;2023-05-09T03:53:57;17.20;99.90
27647;DHT22;42229;51.230;6.240;2023-05-09T03:56:24;17.20;99.90
27647;DHT22;42229;51.230;6.240;2023-05-09T03:58:51;17.20;99.90
27647;DHT22;42229;51.230;6.240;2023-05-09T04:01:18;17.20;99.90
27647;DHT22;42229;51.230;6.240;2023-05-09T04:03:45;17.30;99.90
27647;DHT22;42229;51.230;6.240;2023-05-09T04:06:13;17.20;99.90
27647;DHT22;42229;51.230;6.240;2023-05-09T04:08:43;17.20;99.90
27647;DHT22;42229;51.230;6.240;2023-05-09T04:11:09;17.20;99.90
27647;DHT22;42229;51.230;6.240;2023-05-09T04:13:37;17.20;99.90
27647;DHT22;42229;51.230;6.240;2023-05-09T04:16:11;17.30;99.90
27647;DHT22;42229;51.230;6.240;2023-05-09T04:18:38;17.20;99.90
27647;DHT22;42229;51.230;6.240;2023-05-09T04:21:07;17.20;99.90
27647;DHT22;42229;51.230;6.240;2023-05-09T04:23:33;17.20;99.90
27647;DHT22;42229;51.230;6.240;2023-05-09T04:26:00;17.20;99.90
27647;DHT22;42229;51.230;6.240;2023-05-09T04:28:26;17.20;99.90
27647;DHT22;42229;51.230;6.240;2023-05-09T04:30:53;17.20;99.90
27647;DHT22;42229;51.230;6.240;2023-05-09T04:33:20;17.10;99.90
27647;DHT22;42229;51.230;6.240;2023-05-09T04:35:47;17.20;99.90
27647;DHT22;42229;51.230;6.240;2023-05-09T04:38:13;17.10;99.90
27647;DHT22;42229;51.230;6.240;2023-05-09T04:40:41;17.10;99.90
27647;DHT22;42229;51.230;6.240;2023-05-09T04:43:07;17.20;99.90
27647;DHT22;42229;51.230;6.240;2023-05-09T04:45:34;17.10;99.90
27647;DHT22;42229;51.230;6.240;2023-05-09T04:48:01;17.20;99.90
27647;DHT22;42229;51.230;6.240;2023-05-09T04:50:28;17.20;99.90
27647;DHT22;42229;51.230;6.240;2023-05-09T04:52:54;17.20;99.90
27647;DHT22;42229;51.230;6.240;2023-05-09T04:55:20;17.20;99.90
27647;DHT22;42229;51.230;6.240;2023-05-09T04:57:48;17.30;99.90
27647;DHT22;42229;51.230;6.240;2023-05-09T05:00:15;17.30;99.90
27647;DHT22;42229;51.230;6.240;2023-05-09T05:02:42;17.30;99.90
27647;DHT22;42229;51.230;6.240;2023-05-09T05:05:09;17.30;99.90
27647;DHT22;42229;51.230;6.240;2023-05-09T05:07:37;17.30;99.90
27647;DHT22;42229;51.230;6.240;2023-05-09T05:10:04;17.40;99.90
27647;DHT22;42229;51.230;6.240;2023-05-09T05:12:35;17.40;99.90
27647;DHT22;42229;51.230;6.240;2023-05-09T05:15:02;17.40;99.90
27647;DHT22;42229;51.230;6.240;2023-05-09T05:17:29;17.40;99.90
27647;DHT22;42229;51.230;6.240;2023-05-09T05:19:57;17.40;99.90
27647;DHT22;42229;51.230;6.240;2023-05-09T05:22:26;17.50;99.90
27647;DHT22;42229;51.230;6.240;2023-05-09T05:24:52;17.50;99.90
27647;DHT22;42229;51.230;6.240;2023-05-09T05:27:19;17.50;99.90
27647;DHT22;42229;51.230;6.240;2023-05-09T05:29:45;17.50;99.90
27647;DHT22;42229;51.230;6.240;2023-05-09T05:32:12;17.60;99.90
27647;DHT22;42229;51.230;6.240;2023-05-09T05:34:38;17.60;99.90
27647;DHT22;42229;51.230;6.240;2023-05-09T05:37:05;17.70;99.90
27647;DHT22;42229;51.230;6.240;2023-05-09T05:39:31;17.70;99.90
27647;DHT22;42229;51.230;6.240;2023-05-09T05:41:57;17.80;99.90
27647;DHT22;42229;51.230;6.240;2023-05-09T05:44:24;17.70;99.90
27647;DHT22;42229;51.230;6.240;2023-05-09T05:46:50;17.90;99.90
27647;DHT22;42229;51.230;6.240;2023-05-09T05:49:17;17.80;99.90
27647;DHT22;42229;51.230;6.240;2023-05-09T05:51:43;17.90;99.90
27647;DHT22;42229;51.230;6.240;2023-05-09T05:54:10;17.90;99.90
27647;DHT22;42229;51.230;6.240;2023-05-09T05:56:36;17.90;99.90
27647;DHT22;42229;51.230;6.240;2023-05-09T05:59:03;18.00;99.90
27647;DHT22;42229;51.230;6.240;2023-05-09T06:01:29;18.00;99.90
27647;DHT22;42229;51.230;6.240;2023-05-09T06:03:57;18.00;99.90
27647;DHT22;42229;51.230;6.240;2023-05-09T06:06:26;18.10;99.90
27647;DHT22;42229;51.230;6.240;2023-05-09T06:08:54;18.10;99.90
27647;DHT22;42229;51.230;6.240;2023-05-09T06:11:20;18.10;99.90
27647;DHT22;42229;51.230;6.240;2023-05-09T06:13:46;18.20;99.90
27647;DHT22;42229;51.230;6.240;2023-05-09T06:16:13;18.20;99.90
27647;DHT22;42229;51.230;6.240;2023-05-09T06:18:39;18.20;99.90
27647;DHT22;42229;51.230;6.240;2023-05-09T06:21:05;18.30;99.90
27647;DHT22;42229;51.230;6.240;2023-05-09T06:23:32;18.30;99.90
27647;DHT22;42229;51.230;6.240;2023-05-09T06:25:58;18.30;99.90
27647;DHT22;42229;51.230;6.240;2023-05-09T06:28:24;18.30;99.90
27647;DHT22;42229;51.230;6.240;2023-05-09T06:30:51;18.40;99.90
27647;DHT22;42229;51.230;6.240;2023-05-09T06:33:17;18.40;99.90
27647;DHT22;42229;51.230;6.240;2023-05-09T06:35:44;18.50;99.90
27647;DHT22;42229;51.230;6.240;2023-05-09T06:38:10;18.60;99.90
27647;DHT22;42229;51.230;6.240;2023-05-09T06:40:36;18.60;99.90
27647;DHT22;42229;51.230;6.240;2023-05-09T06:43:02;18.60;99.90
27647;DHT22;42229;51.230;6.240;2023-05-09T06:45:29;18.70;99.90
27647;DHT22;42229;51.230;6.240;2023-05-09T06:47:55;18.70;99.90
27647;DHT22;42229;51.230;6.240;2023-05-09T06:50:22;18.80;99.90
27647;DHT22;42229;51.230;6.240;2023-05-09T06:52:48;18.80;99.90
27647;DHT22;42229;51.230;6.240;2023-05-09T06:55:15;18.90;99.90
27647;DHT22;42229;51.230;6.240;2023-05-09T06:57:41;18.90;99.90
27647;DHT22;42229;51.230;6.240;2023-05-09T07:00:08;19.00;99.90
27647;DHT22;42229;51.230;6.240;2023-05-09T07:02:34;19.10;99.90
27647;DHT22;42229;51.230;6.240;2023-05-09T07:05:01;19.20;99.90
27647;DHT22;42229;51.230;6.240;2023-05-09T07:07:27;19.20;99.90
27647;DHT22;42229;51.230;6.240;2023-05-09T07:09:53;19.30;99.90
27647;DHT22;42229;51.230;6.240;2023-05-09T07:12:19;19.40;99.90
27647;DHT22;42229;51.230;6.240;2023-05-09T07:14:46;19.50;99.90
27647;DHT22;42229;51.230;6.240;2023-05-09T07:17:12;19.50;99.90
27647;DHT22;42229;51.230;6.240;2023-05-09T07:19:38;19.70;99.90
27647;DHT22;42229;51.230;6.240;2023-05-09T07:22:04;19.70;99.90
27647;DHT22;42229;51.230;6.240;2023-05-09T07:24:31;19.80;99.90
27647;DHT22;42229;51.230;6.240;2023-05-09T07:26:57;19.90;99.90
27647;DHT22;42229;51.230;6.240;2023-05-09T07:29:23;20.00;99.90
27647;DHT22;42229;51.230;6.240;2023-05-09T07:31:49;20.10;99.90
27647;DHT22;42229;51.230;6.240;2023-05-09T07:34:16;20.20;99.90
27647;DHT22;42229;51.230;6.240;2023-05-09T07:36:44;20.30;99.90
27647;DHT22;42229;51.230;6.240;2023-05-09T07:39:10;20.40;99.90
27647;DHT22;42229;51.230;6.240;2023-05-09T07:41:37;20.50;99.90
27647;DHT22;42229;51.230;6.240;2023-05-09T07:44:03;20.60;99.90
27647;DHT22;42229;51.230;6.240;2023-05-09T07:46:29;20.70;99.90
27647;DHT22;42229;51.230;6.240;2023-05-09T07:48:55;20.80;99.90
27647;DHT22;42229;51.230;6.240;2023-05-09T07:51:22;20.90;99.90
27647;DHT22;42229;51.230;6.240;2023-05-09T07:53:48;21.00;99.90
27647;DHT22;42229;51.230;6.240;2023-05-09T07:56:15;21.10;99.90
27647;DHT22;42229;51.230;6.240;2023-05-09T07:58:41;21.20;99.90
27647;DHT22;42229;51.230;6.240;2023-05-09T08:01:07;21.30;99.90
27647;DHT22;42229;51.230;6.240;2023-05-09T08:03:33;21.40;99.90
27647;DHT22;42229;51.230;6.240;2023-05-09T08:05:59;21.50;99.90
27647;DHT22;42229;51.230;6.240;2023-05-09T08:08:26;21.70;99.90
27647;DHT22;42229;51.230;6.240;2023-05-09T08:10:53;21.80;99.90
27647;DHT22;42229;51.230;6.240;2023-05-09T08:13:19;21.90;99.90
27647;DHT22;42229;51.230;6.240;2023-05-09T08:15:47;22.00;99.90
27647;DHT22;42229;51.230;6.240;2023-05-09T08:18:13;22.10;99.90
27647;DHT22;42229;51.230;6.240;2023-05-09T08:20:40;22.10;99.90
27647;DHT22;42229;51.230;6.240;2023-05-09T08:23:06;22.20;99.90
27647;DHT22;42229;51.230;6.240;2023-05-09T08:25:32;22.30;99.90
27647;DHT22;42229;51.230;6.240;2023-05-09T08:27:59;22.40;99.90
27647;DHT22;42229;51.230;6.240;2023-05-09T08:30:25;22.50;99.90
27647;DHT22;42229;51.230;6.240;2023-05-09T08:32:54;22.50;99.90
27647;DHT22;42229;51.230;6.240;2023-05-09T08:35:21;22.50;99.90
27647;DHT22;42229;51.230;6.240;2023-05-09T08:37:47;22.50;99.90
27647;DHT22;42229;51.230;6.240;2023-05-09T08:40:13;22.70;99.90
27647;DHT22;42229;51.230;6.240;2023-05-09T08:42:40;22.60;99.90
27647;DHT22;42229;51.230;6.240;2023-05-09T08:45:09;22.70;99.90
27647;DHT22;42229;51.230;6.240;2023-05-09T08:47:37;22.70;99.90
27647;DHT22;42229;51.230;6.240;2023-05-09T08:50:03;22.70;99.90
27647;DHT22;42229;51.230;6.240;2023-05-09T08:52:31;22.70;99.90
27647;DHT22;42229;51.230;6.240;2023-05-09T08:54:58;22.70;99.90
27647;DHT22;42229;51.230;6.240;2023-05-09T08:57:25;22.70;99.90
27647;DHT22;42229;51.230;6.240;2023-05-09T08:59:52;22.70;99.90
27647;DHT22;42229;51.230;6.240;2023-05-09T09:02:18;22.60;99.90
27647;DHT22;42229;51.230;6.240;2023-05-09T09:04:44;22.50;99.90
27647;DHT22;42229;51.230;6.240;2023-05-09T09:07:11;22.50;99.90
27647;DHT22;42229;51.230;6.240;2023-05-09T09:09:38;22.50;99.90
27647;DHT22;42229;51.230;6.240;2023-05-09T09:12:10;22.50;99.90
27647;DHT22;42229;51.230;6.240;2023-05-09T09:14:37;22.40;99.90
27647;DHT22;42229;51.230;6.240;2023-05-09T09:17:04;22.50;99.90
27647;DHT22;42229;51.230;6.240;2023-05-09T09:19:32;22.40;99.90
27647;DHT22;42229;51.230;6.240;2023-05-09T09:21:59;22.50;99.90
27647;DHT22;42229;51.230;6.240;2023-05-09T09:24:29;22.50;99.90
27647;DHT22;42229;51.230;6.240;2023-05-09T09:26:57;22.40;99.90
27647;DHT22;42229;51.230;6.240;2023-05-09T09:29:23;22.40;99.90
27647;DHT22;42229;51.230;6.240;2023-05-09T09:31:53;22.30;99.90
27647;DHT22;42229;51.230;6.240;2023-05-09T09:34:20;22.20;99.90
27647;DHT22;42229;51.230;6.240;2023-05-09T09:36:47;22.20;99.90
27647;DHT22;42229;51.230;6.240;2023-05-09T09:39:14;22.20;99.90
27647;DHT22;42229;51.230;6.240;2023-05-09T09:41:40;22.30;99.90
27647;DHT22;42229;51.230;6.240;2023-05-09T09:49:19;22.60;99.90
27647;DHT22;42229;51.230;6.240;2023-05-09T09:51:53;22.70;99.90
27647;DHT22;42229;51.230;6.240;2023-05-09T09:54:20;22.80;99.90
27647;DHT22;42229;51.230;6.240;2023-05-09T09:56:47;22.90;99.90
27647;DHT22;42229;51.230;6.240;2023-05-09T10:01:54;23.00;99.90
27647;DHT22;42229;51.230;6.240;2023-05-09T10:04:26;23.10;99.90
27647;DHT22;42229;51.230;6.240;2023-05-09T10:06:57;23.10;99.90
27647;DHT22;42229;51.230;6.240;2023-05-09T10:09:25;23.10;99.90
27647;DHT22;42229;51.230;6.240;2023-05-09T10:11:52;23.20;99.90
27647;DHT22;42229;51.230;6.240;2023-05-09T10:14:21;23.20;99.90
27647;DHT22;42229;51.230;6.240;2023-05-09T10:16:48;23.30;99.90
27647;DHT22;42229;51.230;6.240;2023-05-09T10:19:19;23.30;99.90
27647;DHT22;42229;51.230;6.240;2023-05-09T10:21:47;23.40;99.90
27647;DHT22;42229;51.230;6.240;2023-05-09T10:24:20;23.50;99.90
27647;DHT22;42229;51.230;6.240;2023-05-09T10:26:56;23.50;99.90
27647;DHT22;42229;51.230;6.240;2023-05-09T10:29:29;23.60;99.90
27647;DHT22;42229;51.230;6.240;2023-05-09T10:31:59;23.80;99.90
27647;DHT22;42229;51.230;6.240;2023-05-09T10:34:31;23.90;99.90
27647;DHT22;42229;51.230;6.240;2023-05-09T10:36:59;23.80;99.90
27647;DHT22;42229;51.230;6.240;2023-05-09T10:39:26;23.90;99.90
27647;DHT22;42229;51.230;6.240;2023-05-09T10:41:52;23.90;99.90
27647;DHT22;42229;51.230;6.240;2023-05-09T10:44:20;23.90;99.90
27647;DHT22;42229;51.230;6.240;2023-05-09T10:46:48;23.80;99.90
27647;DHT22;42229;51.230;6.240;2023-05-09T10:49:14;23.90;99.90
27647;DHT22;42229;51.230;6.240;2023-05-09T10:51:40;23.90;99.90
27647;DHT22;42229;51.230;6.240;2023-05-09T10:54:13;23.80;99.90
27647;DHT22;42229;51.230;6.240;2023-05-09T10:56:41;23.80;99.90
27647;DHT22;42229;51.230;6.240;2023-05-09T10:59:23;23.90;99.90
27647;DHT22;42229;51.230;6.240;2023-05-09T11:02:13;23.80;99.90
27647;DHT22;42229;51.230;6.240;2023-05-09T11:04:41;23.80;99.90
27647;DHT22;42229;51.230;6.240;2023-05-09T11:07:22;23.70;99.90
27647;DHT22;42229;51.230;6.240;2023-05-09T11:09:50;23.70;99.90
27647;DHT22;42229;51.230;6.240;2023-05-09T11:12:56;23.50;99.90
27647;DHT22;42229;51.230;6.240;2023-05-09T11:15:24;23.50;99.90
27647;DHT22;42229;51.230;6.240;2023-05-09T11:18:05;23.40;99.90
27647;DHT22;42229;51.230;6.240;2023-05-09T11:20:33;23.40;99.90
27647;DHT22;42229;51.230;6.240;2023-05-09T11:23:02;23.40;99.90
27647;DHT22;42229;51.230;6.240;2023-05-09T11:25:29;23.40;99.90
27647;DHT22;42229;51.230;6.240;2023-05-09T11:28:01;23.40;99.90
27647;DHT22;42229;51.230;6.240;2023-05-09T11:33:03;23.30;99.90
27647;DHT22;42229;51.230;6.240;2023-05-09T11:35:31;23.20;99.90
27647;DHT22;42229;51.230;6.240;2023-05-09T11:38:03;23.00;99.90
27647;DHT22;42229;51.230;6.240;2023-05-09T11:40:31;22.90;99.90
27647;DHT22;42229;51.230;6.240;2023-05-09T11:42:58;22.80;99.90
27647;DHT22;42229;51.230;6.240;2023-05-09T11:45:26;22.70;99.90
27647;DHT22;42229;51.230;6.240;2023-05-09T11:47:57;22.60;99.90
27647;DHT22;42229;51.230;6.240;2023-05-09T11:50:23;22.30;99.90
27647;DHT22;42229;51.230;6.240;2023-05-09T11:52:50;22.20;99.90
27647;DHT22;42229;51.230;6.240;2023-05-09T11:55:17;21.90;99.90
27647;DHT22;42229;51.230;6.240;2023-05-09T11:57:50;21.70;99.90
27647;DHT22;42229;51.230;6.240;2023-05-09T12:00:18;21.40;99.90
27647;DHT22;42229;51.230;6.240;2023-05-09T12:02:46;21.10;99.90
27647;DHT22;42229;51.230;6.240;2023-05-09T12:05:14;20.80;99.90
27647;DHT22;42229;51.230;6.240;2023-05-09T12:07:41;20.50;99.90
27647;DHT22;42229;51.230;6.240;2023-05-09T12:10:08;20.20;99.90
27647;DHT22;42229;51.230;6.240;2023-05-09T12:12:41;20.00;99.90
27647;DHT22;42229;51.230;6.240;2023-05-09T12:15:09;19.90;99.90
27647;DHT22;42229;51.230;6.240;2023-05-09T12:17:35;19.70;99.90
27647;DHT22;42229;51.230;6.240;2023-05-09T12:20:02;19.60;99.90
27647;DHT22;42229;51.230;6.240;2023-05-09T12:22:33;19.60;99.90
27647;DHT22;42229;51.230;6.240;2023-05-09T12:25:00;19.50;99.90
27647;DHT22;42229;51.230;6.240;2023-05-09T12:27:27;19.50;99.90
27647;DHT22;42229;51.230;6.240;2023-05-09T12:29:54;19.40;99.90
27647;DHT22;42229;51.230;6.240;2023-05-09T12:32:20;19.40;99.90
27647;DHT22;42229;51.230;6.240;2023-05-09T12:34:46;19.50;99.90
27647;DHT22;42229;51.230;6.240;2023-05-09T12:37:14;19.50;99.90
27647;DHT22;42229;51.230;6.240;2023-05-09T12:39:43;19.50;99.90
27647;DHT22;42229;51.230;6.240;2023-05-09T12:42:12;19.50;99.90
27647;DHT22;42229;51.230;6.240;2023-05-09T12:44:39;19.50;99.90
27647;DHT22;42229;51.230;6.240;2023-05-09T12:47:06;19.50;99.90
27647;DHT22;42229;51.230;6.240;2023-05-09T12:49:35;19.50;99.90
27647;DHT22;42229;51.230;6.240;2023-05-09T12:52:01;19.50;99.90
27647;DHT22;42229;51.230;6.240;2023-05-09T12:54:28;19.40;99.90
27647;DHT22;42229;51.230;6.240;2023-05-09T12:56:55;19.40;99.90
27647;DHT22;42229;51.230;6.240;2023-05-09T12:59:23;19.30;99.90
27647;DHT22;42229;51.230;6.240;2023-05-09T13:01:57;19.20;99.90
27647;DHT22;42229;51.230;6.240;2023-05-09T13:04:25;19.10;99.90
27647;DHT22;42229;51.230;6.240;2023-05-09T13:06:53;19.00;99.90
27647;DHT22;42229;51.230;6.240;2023-05-09T13:09:22;19.00;99.90
27647;DHT22;42229;51.230;6.240;2023-05-09T13:11:49;18.90;99.90
27647;DHT22;42229;51.230;6.240;2023-05-09T13:14:17;18.80;99.90
27647;DHT22;42229;51.230;6.240;2023-05-09T13:16:43;18.70;99.90
27647;DHT22;42229;51.230;6.240;2023-05-09T13:19:10;18.70;99.90
27647;DHT22;42229;51.230;6.240;2023-05-09T13:21:36;18.70;99.90
27647;DHT22;42229;51.230;6.240;2023-05-09T13:24:03;18.60;99.90
27647;DHT22;42229;51.230;6.240;2023-05-09T13:26:30;18.50;99.90
27647;DHT22;42229;51.230;6.240;2023-05-09T13:28:56;18.40;99.90
27647;DHT22;42229;51.230;6.240;2023-05-09T13:31:22;18.40;99.90
27647;DHT22;42229;51.230;6.240;2023-05-09T13:33:49;18.40;99.90
27647;DHT22;42229;51.230;6.240;2023-05-09T13:36:15;18.30;99.90
27647;DHT22;42229;51.230;6.240;2023-05-09T13:38:42;18.30;99.90
27647;DHT22;42229;51.230;6.240;2023-05-09T13:41:10;18.20;99.90
27647;DHT22;42229;51.230;6.240;2023-05-09T13:43:38;18.20;99.90
27647;DHT22;42229;51.230;6.240;2023-05-09T13:46:05;18.10;99.90
27647;DHT22;42229;51.230;6.240;2023-05-09T13:48:32;18.10;99.90
27647;DHT22;42229;51.230;6.240;2023-05-09T13:50:58;18.10;99.90
27647;DHT22;42229;51.230;6.240;2023-05-09T13:53:25;18.00;99.90
27647;DHT22;42229;51.230;6.240;2023-05-09T13:55:52;18.00;99.90
27647;DHT22;42229;51.230;6.240;2023-05-09T13:58:18;18.00;99.90
27647;DHT22;42229;51.230;6.240;2023-05-09T14:00:44;18.00;99.90
27647;DHT22;42229;51.230;6.240;2023-05-09T14:03:10;17.90;99.90
27647;DHT22;42229;51.230;6.240;2023-05-09T14:05:37;17.80;99.90
27647;DHT22;42229;51.230;6.240;2023-05-09T14:08:03;17.80;99.90
27647;DHT22;42229;51.230;6.240;2023-05-09T14:10:29;17.80;99.90
27647;DHT22;42229;51.230;6.240;2023-05-09T14:12:55;17.70;99.90
27647;DHT22;42229;51.230;6.240;2023-05-09T14:15:22;17.60;99.90
27647;DHT22;42229;51.230;6.240;2023-05-09T14:17:48;17.60;99.90
27647;DHT22;42229;51.230;6.240;2023-05-09T14:20:14;17.60;99.90
27647;DHT22;42229;51.230;6.240;2023-05-09T14:22:41;17.60;99.90
27647;DHT22;42229;51.230;6.240;2023-05-09T14:25:07;17.60;99.90
27647;DHT22;42229;51.230;6.240;2023-05-09T14:27:33;17.50;99.90
27647;DHT22;42229;51.230;6.240;2023-05-09T14:30:02;17.40;99.90
27647;DHT22;42229;51.230;6.240;2023-05-09T14:32:29;17.40;99.90
27647;DHT22;42229;51.230;6.240;2023-05-09T14:34:55;17.40;99.90
27647;DHT22;42229;51.230;6.240;2023-05-09T14:37:21;17.30;99.90
27647;DHT22;42229;51.230;6.240;2023-05-09T14:39:47;17.30;99.90
27647;DHT22;42229;51.230;6.240;2023-05-09T14:42:15;17.30;99.90
27647;DHT22;42229;51.230;6.240;2023-05-09T14:44:41;17.20;99.90
27647;DHT22;42229;51.230;6.240;2023-05-09T14:47:09;17.10;99.90
27647;DHT22;42229;51.230;6.240;2023-05-09T14:49:35;17.00;99.90
27647;DHT22;42229;51.230;6.240;2023-05-09T14:52:03;17.00;99.90
27647;DHT22;42229;51.230;6.240;2023-05-09T14:54:29;17.00;99.90
27647;DHT22;42229;51.230;6.240;2023-05-09T14:56:56;16.90;99.90
27647;DHT22;42229;51.230;6.240;2023-05-09T14:59:24;16.90;99.90
27647;DHT22;42229;51.230;6.240;2023-05-09T15:01:50;16.90;99.90
27647;DHT22;42229;51.230;6.240;2023-05-09T15:04:17;16.80;99.90
27647;DHT22;42229;51.230;6.240;2023-05-09T15:06:44;16.80;99.90
27647;DHT22;42229;51.230;6.240;2023-05-09T15:09:10;16.80;99.90
27647;DHT22;42229;51.230;6.240;2023-05-09T15:11:37;16.80;99.90
27647;DHT22;42229;51.230;6.240;2023-05-09T15:14:04;16.80;99.90
27647;DHT22;42229;51.230;6.240;2023-05-09T15:16:30;16.70;99.90
27647;DHT22;42229;51.230;6.240;2023-05-09T15:18:57;16.70;99.90
27647;DHT22;42229;51.230;6.240;2023-05-09T15:21:23;16.70;99.90
27647;DHT22;42229;51.230;6.240;2023-05-09T15:23:49;16.70;99.90
27647;DHT22;42229;51.230;6.240;2023-05-09T15:26:15;16.70;99.90
27647;DHT22;42229;51.230;6.240;2023-05-09T15:28:42;16.70;99.90
27647;DHT22;42229;51.230;6.240;2023-05-09T15:31:10;16.60;99.90
27647;DHT22;42229;51.230;6.240;2023-05-09T15:33:36;16.60;99.90
27647;DHT22;42229;51.230;6.240;2023-05-09T15:36:02;16.60;99.90
27647;DHT22;42229;51.230;6.240;2023-05-09T15:38:29;16.50;99.90
27647;DHT22;42229;51.230;6.240;2023-05-09T15:40:55;16.50;99.90
27647;DHT22;42229;51.230;6.240;2023-05-09T15:43:21;16.40;99.90
27647;DHT22;42229;51.230;6.240;2023-05-09T15:45:47;16.40;99.90
27647;DHT22;42229;51.230;6.240;2023-05-09T15:48:14;16.40;99.90